Monroe County Airport
KBMG : rendu visible

Aérodrome :











RETROUVEZ-NOUS SUR...

 
LOGIN :

S'inscrire | Disclaimer

   EN    FR    IT 

 









Légende :    VFR   VFR Marginal   IFR   IFR Intensif   IFR Très Intensif
Visi : 
Plafond : 
>= 8 km
>= 3000ft
5 à 8 km
1000 à 3000 ft
1500m à 5 km
500 à 1000 ft
800 à 1500m
200 à 500 ft
< 800m
< 200 ft
Symboles :   Orages  Brouillard  Fortes neiges  Fortes précipitations  Vent > 20 kt






- Altitude de l'aérodrome : 846 ft
- Code IATA : BMG


KBMG - Monroe County

DERNIER METAR :
  • 250253Z AUTO 14004KT 10SM FEW037 20/18 A3002 RMK AO2 SLP158 60005 T02000183 53015

METARs EXPIRÉS :
  • 250153Z AUTO 13007KT 10SM SCT120 21/19 A3000 RMK AO2 SLP153 T02060189
  • 250053Z 09005KT 10SM FEW065 SCT110 21/19 A2998 RMK AO2 LTG DSNT E AND SE RAE44 SLP145 P0005 T02110189
  • 250024Z 09007KT 9SM -RA SCT085 BKN110 21/18 A2999 RMK AO2 LTG DSNT N AND NE P0004 T02060183

TAF KBMG
Valide du 25 à 00h jusqu'au 26 à 00h UTC


242320Z 2500/2524 16006KT P6SM VCTS SCT040CB BKN150
TEMPO 2500/2501 2SM -TSRA BR OVC040CB
FM250300 VRB04KT P6SM BKN150
FM250900 VRB05KT P6SM SCT250
FM251700 18007KT P6SM VCTS SCT040CB BKN200 AMD LTD TO CLD VIS AND WIND 2501/2513
FIR KZID / Amérique du Nord



MET'MAP, la Météo Aéronautique d'un coup d'oeil ! - Copyright ORBIFLY Décembre 2007 - Disclaimer

ORBIFLY MET'MAP TEAM :

Programmation & Développement : Alexandra Zaïnal
Sur une idée originale de : Baudouin d'Aumeries
Assistance à la programmation : Marc-Olivier Méhu
Soutien technique & logistique : Manuel Goepfert

Contact : metmap@orbifly.com




SOURCES & CREDITS :

   NOAA       Earth
Advisory